Time;durP1;ratioP1;P1;durP2;ratioP2;P2;SDS_P1;SDS_P2;PMS_P1;PMS_P2;Temp;Humidity;BMP_temperature;BMP_pressure;BME280_temperature;BME280_humidity;BME280_pressure;Samples;Min_cycle;Max_cycle;Signal;HPM_P1;HPM_P2
2021/03/06 00:00:23;;;;;;;5.13;3.50;;;3.70;99.90;;;;;;5015634;28;20584;-68
2021/03/06 00:02:51;;;;;;;7.03;3.60;;;3.70;99.90;;;;;;5037710;28;20459;-68
2021/03/06 00:05:18;;;;;;;7.47;5.07;;;3.70;99.90;;;;;;5037646;28;20452;-68
2021/03/06 00:07:44;;;;;;;7.20;4.70;;;3.60;99.90;;;;;;5030924;28;20509;-68
2021/03/06 00:10:11;;;;;;;8.77;4.13;;;3.60;99.90;;;;;;4998889;28;20452;-68
2021/03/06 00:12:39;;;;;;;6.63;3.40;;;3.60;99.90;;;;;;5028892;28;20723;-68
2021/03/06 00:15:06;;;;;;;5.70;3.20;;;3.50;99.90;;;;;;5012322;28;20480;-68
2021/03/06 00:17:31;;;;;;;6.27;3.50;;;3.50;99.90;;;;;;5012751;28;20462;-68
2021/03/06 00:19:57;;;;;;;5.53;3.27;;;3.50;99.90;;;;;;4995861;28;20466;-67
2021/03/06 00:22:23;;;;;;;3.47;2.60;;;3.50;99.90;;;;;;5012581;28;20703;-68
2021/03/06 00:24:48;;;;;;;6.10;2.63;;;3.50;99.90;;;;;;5011685;28;20712;-71
2021/03/06 00:27:14;;;;;;;2.90;2.23;;;3.50;99.90;;;;;;4995997;28;20221;-68
2021/03/06 00:29:39;;;;;;;3.13;2.87;;;3.50;99.90;;;;;;5000547;28;20315;-68
2021/03/06 00:32:05;;;;;;;5.20;2.80;;;3.50;99.90;;;;;;5021468;28;20251;-68
2021/03/06 00:34:31;;;;;;;3.87;2.97;;;3.50;99.90;;;;;;5003496;28;20271;-67
2021/03/06 00:36:57;;;;;;;3.63;2.70;;;3.40;99.90;;;;;;5010339;28;20255;-67
2021/03/06 00:39:22;;;;;;;4.73;3.03;;;3.40;99.90;;;;;;5014955;28;20762;-68
2021/03/06 00:41:48;;;;;;;4.33;2.60;;;3.40;99.90;;;;;;5039329;28;20213;-69
2021/03/06 00:44:15;;;;;;;3.40;2.50;;;3.40;99.90;;;;;;5000687;28;20251;-69
2021/03/06 00:46:41;;;;;;;2.13;1.90;;;3.40;99.90;;;;;;5006543;28;20491;-68
2021/03/06 00:49:07;;;;;;;2.33;1.83;;;3.40;99.90;;;;;;4986943;28;20222;-68
2021/03/06 00:51:33;;;;;;;3.47;2.80;;;3.30;99.90;;;;;;4995883;28;20631;-69
2021/03/06 00:53:59;;;;;;;4.03;2.50;;;3.30;99.90;;;;;;5016796;28;20218;-69
2021/03/06 00:56:25;;;;;;;3.60;3.00;;;3.20;99.90;;;;;;5007658;28;20452;-67
2021/03/06 00:58:51;;;;;;;4.50;2.73;;;3.20;99.90;;;;;;4989250;28;20463;-68
2021/03/06 01:01:17;;;;;;;2.53;2.03;;;3.20;99.90;;;;;;4995670;28;20220;-68
2021/03/06 01:03:43;;;;;;;3.60;2.47;;;3.10;99.90;;;;;;5028286;28;20221;-68
2021/03/06 01:06:08;;;;;;;3.40;2.50;;;3.20;99.90;;;;;;5012434;28;20446;-68
2021/03/06 01:08:35;;;;;;;3.60;2.40;;;3.00;99.90;;;;;;5028013;28;20225;-68
2021/03/06 01:11:02;;;;;;;3.53;2.43;;;3.00;99.90;;;;;;5011499;28;20244;-68
2021/03/06 01:13:29;;;;;;;3.10;2.60;;;3.00;99.90;;;;;;5012098;28;21005;-68
2021/03/06 01:15:55;;;;;;;4.03;2.70;;;3.10;99.90;;;;;;5027945;28;21038;-68
2021/03/06 01:18:21;;;;;;;3.83;2.67;;;3.10;99.90;;;;;;5028241;28;20598;-67
2021/03/06 01:20:47;;;;;;;6.03;2.80;;;3.00;99.90;;;;;;5019195;28;20459;-68
2021/03/06 01:23:14;;;;;;;2.40;2.20;;;3.00;99.90;;;;;;5046602;28;20614;-67
2021/03/06 01:25:40;;;;;;;6.93;2.20;;;3.00;99.90;;;;;;5039049;28;20539;-68
2021/03/06 01:28:06;;;;;;;3.50;2.40;;;3.00;99.90;;;;;;5022708;28;20457;-68
2021/03/06 01:30:33;;;;;;;3.00;2.30;;;2.90;99.90;;;;;;5022620;28;20528;-67
2021/03/06 01:32:59;;;;;;;4.20;2.40;;;2.90;99.90;;;;;;5015046;28;21094;-68
2021/03/06 01:35:25;;;;;;;2.83;2.10;;;2.90;99.90;;;;;;5022653;28;20452;-69
2021/03/06 01:37:52;;;;;;;2.80;2.00;;;2.90;99.90;;;;;;5047050;28;20485;-67
2021/03/06 01:40:24;;;;;;;7.90;3.10;;;2.90;99.90;;;;;;5048082;28;20476;-67
2021/03/06 01:42:49;;;;;;;4.60;2.70;;;2.90;99.90;;;;;;5022307;28;20977;-67
2021/03/06 01:45:15;;;;;;;6.47;3.07;;;2.80;99.90;;;;;;5004073;28;20497;-67
2021/03/06 01:47:41;;;;;;;10.70;3.67;;;2.70;99.90;;;;;;5017515;28;20228;-67
2021/03/06 01:50:09;;;;;;;3.77;2.17;;;2.60;99.90;;;;;;5023075;28;21037;-68
2021/03/06 01:52:35;;;;;;;3.13;2.23;;;2.70;99.90;;;;;;5047929;28;20232;-69
2021/03/06 01:55:02;;;;;;;2.80;2.40;;;2.70;99.90;;;;;;5039220;28;20505;-67
2021/03/06 01:57:28;;;;;;;3.83;2.87;;;2.80;99.90;;;;;;5047775;28;20459;-67
2021/03/06 01:59:53;;;;;;;4.53;2.40;;;2.70;99.90;;;;;;5014336;28;20536;-67
2021/03/06 02:02:19;;;;;;;3.63;2.60;;;2.80;99.90;;;;;;5015091;28;20244;-68
2021/03/06 02:04:45;;;;;;;4.30;2.43;;;2.80;99.90;;;;;;5043028;28;20225;-66
2021/03/06 02:07:11;;;;;;;4.07;2.87;;;2.70;99.90;;;;;;4995446;28;20521;-70
2021/03/06 02:09:37;;;;;;;3.93;2.60;;;2.70;99.90;;;;;;4995178;28;20642;-69
2021/03/06 02:12:18;;;;;;;4.27;2.80;;;2.70;99.90;;;;;;5010927;28;20691;-68
2021/03/06 02:14:51;;;;;;;5.80;2.30;;;2.70;99.90;;;;;;5005124;28;20530;-69
2021/03/06 02:17:42;;;;;;;5.90;3.20;;;2.70;99.90;;;;;;5030112;28;20547;-69
2021/03/06 02:20:47;;;;;;;3.90;2.70;;;2.70;99.90;;;;;;5046880;28;20564;-69
2021/03/06 02:23:47;;;;;;;3.60;2.40;;;2.70;99.90;;;;;;5034365;28;20482;-70
2021/03/06 02:26:20;;;;;;;3.33;2.83;;;2.60;99.90;;;;;;5020577;28;20483;-69
2021/03/06 02:29:04;;;;;;;2.40;2.20;;;2.60;99.90;;;;;;5011472;28;20918;-68
2021/03/06 02:31:33;;;;;;;5.00;2.70;;;2.60;99.90;;;;;;5011535;28;20470;-69
2021/03/06 02:34:08;;;;;;;4.60;2.60;;;2.60;99.90;;;;;;5027371;28;20447;-69
2021/03/06 02:36:39;;;;;;;3.80;2.70;;;2.60;99.90;;;;;;5002858;28;20453;-69
2021/03/06 02:39:12;;;;;;;11.80;2.67;;;2.50;99.90;;;;;;5050156;28;20460;-70
2021/03/06 02:41:38;;;;;;;2.37;2.17;;;2.50;99.90;;;;;;4998983;28;20499;-69
2021/03/06 02:44:05;;;;;;;3.50;2.60;;;2.50;99.90;;;;;;5030373;28;20502;-69
2021/03/06 02:46:33;;;;;;;5.43;2.43;;;2.50;99.90;;;;;;5031077;28;20483;-69
2021/03/06 02:48:59;;;;;;;3.40;2.60;;;2.50;99.90;;;;;;4994796;28;20493;-67
2021/03/06 02:51:24;;;;;;;5.37;2.87;;;2.40;99.90;;;;;;5007577;28;20498;-66
2021/03/06 02:53:50;;;;;;;4.93;3.27;;;2.40;99.90;;;;;;5003317;28;20212;-66
2021/03/06 02:56:17;;;;;;;4.07;2.77;;;2.30;99.90;;;;;;5047876;28;20220;-67
2021/03/06 02:59:11;;;;;;;5.47;2.20;;;2.40;99.90;;;;;;5020854;28;20444;-67
2021/03/06 03:02:06;;;;;;;2.10;1.83;;;2.30;99.90;;;;;;5033220;28;20465;-69
2021/03/06 03:04:55;;;;;;;5.57;3.07;;;2.40;99.90;;;;;;5036477;28;20461;-66
2021/03/06 03:07:27;;;;;;;3.93;2.07;;;2.40;99.90;;;;;;5050074;28;20450;-68
2021/03/06 03:09:59;;;;;;;3.57;2.53;;;2.40;99.90;;;;;;5049532;28;20466;-67
2021/03/06 03:12:28;;;;;;;2.53;2.07;;;2.40;99.90;;;;;;5039764;28;20448;-67
2021/03/06 03:15:09;;;;;;;3.60;3.10;;;2.40;99.90;;;;;;5012972;28;20459;-67
2021/03/06 03:17:34;;;;;;;5.33;2.70;;;2.30;99.90;;;;;;5036163;28;20458;-68
2021/03/06 03:20:30;;;;;;;3.20;2.50;;;2.30;99.90;;;;;;5042730;28;20492;-67
2021/03/06 03:23:01;;;;;;;6.03;2.40;;;2.30;99.90;;;;;;5024031;28;20285;-66
2021/03/06 03:25:29;;;;;;;3.60;2.50;;;2.30;99.90;;;;;;5021474;28;20460;-67
2021/03/06 03:27:55;;;;;;;2.77;2.40;;;2.30;99.90;;;;;;5009730;28;20460;-67
2021/03/06 03:30:40;;;;;;;4.43;2.97;;;2.20;99.90;;;;;;5040637;28;20498;-67
2021/03/06 03:33:09;;;;;;;2.50;2.30;;;2.20;99.90;;;;;;5036242;28;20506;-66
2021/03/06 03:35:38;;;;;;;7.10;3.17;;;2.20;99.90;;;;;;5016029;28;20566;-66
2021/03/06 03:38:05;;;;;;;7.23;2.80;;;2.20;99.90;;;;;;5049424;28;21054;-67
2021/03/06 03:40:36;;;;;;;8.23;3.60;;;2.20;99.90;;;;;;5032389;28;20471;-67
2021/03/06 03:43:03;;;;;;;5.20;3.80;;;2.20;99.90;;;;;;5049231;28;20860;-66
2021/03/06 03:45:29;;;;;;;3.63;2.20;;;2.10;99.90;;;;;;5032973;28;20459;-67
2021/03/06 03:47:55;;;;;;;4.70;2.53;;;2.10;99.90;;;;;;5032523;28;20471;-67
2021/03/06 03:50:22;;;;;;;6.50;3.00;;;2.10;99.90;;;;;;5041337;28;20535;-68
2021/03/06 03:52:49;;;;;;;4.73;2.87;;;2.10;99.90;;;;;;5001104;28;21105;-69
2021/03/06 03:55:17;;;;;;;3.30;2.70;;;2.00;99.90;;;;;;5005561;28;20508;-67
2021/03/06 03:57:47;;;;;;;4.67;2.57;;;2.00;99.90;;;;;;5012346;28;20516;-67
2021/03/06 04:00:16;;;;;;;4.83;2.70;;;2.00;99.90;;;;;;5012944;28;20463;-67
2021/03/06 04:02:42;;;;;;;5.73;2.80;;;2.00;99.90;;;;;;5028756;28;20467;-67
2021/03/06 04:05:10;;;;;;;5.07;3.20;;;1.90;99.90;;;;;;5037336;28;20451;-67
2021/03/06 04:07:50;;;;;;;3.70;2.77;;;1.90;99.90;;;;;;5041255;28;20462;-67
2021/03/06 04:10:21;;;;;;;7.30;3.30;;;2.00;99.90;;;;;;5032142;28;20470;-66
2021/03/06 04:12:48;;;;;;;3.53;2.70;;;1.90;99.90;;;;;;5017956;28;20492;-67
2021/03/06 04:15:15;;;;;;;4.90;2.83;;;1.90;99.90;;;;;;5028661;28;20497;-68
2021/03/06 04:17:41;;;;;;;4.27;2.70;;;1.90;99.90;;;;;;4999911;28;20471;-67
2021/03/06 04:20:10;;;;;;;5.53;4.07;;;1.90;99.90;;;;;;5001111;28;20468;-67
2021/03/06 04:22:36;;;;;;;3.37;2.97;;;1.80;99.90;;;;;;5012698;28;20464;-68
2021/03/06 04:25:06;;;;;;;3.80;2.47;;;1.80;99.90;;;;;;5008955;28;20463;-67
2021/03/06 04:27:32;;;;;;;3.50;3.13;;;1.90;99.90;;;;;;5007903;28;20240;-67
2021/03/06 04:29:58;;;;;;;2.73;2.30;;;1.80;99.90;;;;;;5036205;28;20462;-67
2021/03/06 04:32:24;;;;;;;4.20;3.30;;;1.80;99.90;;;;;;5015352;28;20463;-67
2021/03/06 04:34:50;;;;;;;4.47;2.83;;;1.80;99.90;;;;;;5031397;28;20230;-67
2021/03/06 04:37:16;;;;;;;4.77;2.77;;;1.80;99.90;;;;;;5048473;28;20458;-66
2021/03/06 04:39:42;;;;;;;4.60;2.40;;;1.80;99.90;;;;;;5042196;28;20223;-66
2021/03/06 04:42:07;;;;;;;5.50;3.33;;;1.60;99.90;;;;;;5030135;28;20730;-67
2021/03/06 04:44:33;;;;;;;2.70;2.40;;;1.60;99.90;;;;;;5048041;28;20825;-68
2021/03/06 04:47:02;;;;;;;5.93;2.33;;;1.60;99.90;;;;;;5047834;28;20228;-70
2021/03/06 04:49:27;;;;;;;4.07;2.63;;;1.60;99.90;;;;;;5048157;28;20251;-67
2021/03/06 04:51:53;;;;;;;2.57;1.97;;;1.60;99.90;;;;;;5030956;28;20487;-67
2021/03/06 04:54:19;;;;;;;3.90;3.13;;;1.50;99.90;;;;;;5013940;28;20295;-66
2021/03/06 04:56:44;;;;;;;4.23;2.73;;;1.50;99.90;;;;;;5030295;28;20307;-67
2021/03/06 04:59:10;;;;;;;3.50;2.63;;;1.40;99.90;;;;;;5014996;28;20228;-67
2021/03/06 05:01:35;;;;;;;3.40;2.30;;;1.50;99.90;;;;;;5047863;28;20232;-66
2021/03/06 05:04:01;;;;;;;4.33;3.00;;;1.50;99.90;;;;;;5031360;28;20243;-67
2021/03/06 05:06:27;;;;;;;6.10;4.07;;;1.50;99.90;;;;;;5014981;28;20752;-67
2021/03/06 05:08:52;;;;;;;4.63;2.90;;;1.50;99.90;;;;;;5030421;28;20224;-66
2021/03/06 05:11:18;;;;;;;4.70;3.00;;;1.50;99.90;;;;;;5029510;28;20224;-67
2021/03/06 05:13:44;;;;;;;4.37;3.03;;;1.50;99.90;;;;;;4991457;28;20214;-68
2021/03/06 05:16:09;;;;;;;6.83;3.57;;;1.60;99.90;;;;;;5016278;28;20217;-68
2021/03/06 05:18:35;;;;;;;5.30;3.43;;;1.50;99.90;;;;;;5024877;28;20271;-66
2021/03/06 05:21:01;;;;;;;6.20;3.20;;;1.40;99.90;;;;;;5026116;28;20275;-67
2021/03/06 05:23:27;;;;;;;4.30;2.70;;;1.40;99.90;;;;;;4990906;28;20263;-68
2021/03/06 05:25:53;;;;;;;6.53;2.90;;;1.40;99.90;;;;;;5009420;28;20216;-67
2021/03/06 05:28:20;;;;;;;4.30;2.30;;;1.40;99.90;;;;;;5027321;28;20874;-66
2021/03/06 05:30:46;;;;;;;9.03;2.53;;;1.40;99.90;;;;;;5031058;28;20221;-67
2021/03/06 05:33:16;;;;;;;4.80;2.40;;;1.40;99.90;;;;;;4994081;28;20471;-67
2021/03/06 05:35:42;;;;;;;5.87;2.83;;;1.40;99.90;;;;;;5010943;28;20471;-66
2021/03/06 05:38:08;;;;;;;3.80;2.70;;;1.30;99.90;;;;;;5025216;28;20472;-67
2021/03/06 05:40:42;;;;;;;3.50;1.90;;;1.30;99.90;;;;;;5010517;28;20564;-66
2021/03/06 05:43:09;;;;;;;4.20;2.67;;;1.30;99.90;;;;;;5011181;28;20447;-66
2021/03/06 05:45:35;;;;;;;5.43;3.00;;;1.40;99.90;;;;;;4994005;28;20451;-68
2021/03/06 05:48:01;;;;;;;3.53;2.70;;;1.40;99.90;;;;;;5009666;28;20876;-66
2021/03/06 05:50:28;;;;;;;3.50;2.27;;;1.30;99.90;;;;;;5009800;28;20583;-65
2021/03/06 05:52:55;;;;;;;4.73;2.83;;;1.40;99.90;;;;;;5009769;28;20475;-67
2021/03/06 05:55:24;;;;;;;4.00;2.70;;;1.40;99.90;;;;;;5015489;28;20443;-66
2021/03/06 05:57:51;;;;;;;2.83;2.37;;;1.30;99.90;;;;;;4997439;28;20484;-67
2021/03/06 06:00:17;;;;;;;4.87;2.83;;;1.30;99.90;;;;;;5031405;28;20530;-67
2021/03/06 06:02:43;;;;;;;2.00;1.67;;;1.30;99.90;;;;;;4997160;28;20471;-67
2021/03/06 06:05:09;;;;;;;12.13;3.50;;;1.30;99.90;;;;;;5013699;28;20459;-68
2021/03/06 06:07:35;;;;;;;4.30;2.10;;;1.30;99.90;;;;;;5031526;28;20459;-67
2021/03/06 06:10:02;;;;;;;3.00;2.70;;;1.20;99.90;;;;;;5013163;28;20448;-66
2021/03/06 06:12:27;;;;;;;3.70;2.23;;;1.10;99.90;;;;;;5013599;28;20474;-68
2021/03/06 06:14:53;;;;;;;3.33;2.70;;;1.10;99.90;;;;;;5005661;28;20453;-67
2021/03/06 06:17:22;;;;;;;4.97;3.10;;;1.10;99.90;;;;;;4995048;28;20221;-67
2021/03/06 06:19:48;;;;;;;2.50;2.30;;;1.10;99.90;;;;;;4994407;28;20233;-68
2021/03/06 06:22:18;;;;;;;2.87;2.07;;;1.20;99.90;;;;;;5010786;28;20517;-67
2021/03/06 06:24:45;;;;;;;5.33;2.10;;;1.20;99.90;;;;;;5010546;28;20230;-66
2021/03/06 06:27:11;;;;;;;4.80;2.20;;;1.20;99.90;;;;;;5021615;28;20838;-66
2021/03/06 06:29:42;;;;;;;2.80;2.20;;;1.10;99.90;;;;;;5051076;28;20470;-66
2021/03/06 06:32:15;;;;;;;4.17;2.57;;;1.10;99.90;;;;;;5034489;28;20470;-67
2021/03/06 06:34:42;;;;;;;5.23;2.77;;;1.10;99.90;;;;;;5033860;28;20472;-66
2021/03/06 06:37:15;;;;;;;2.80;2.07;;;1.10;99.90;;;;;;5017804;28;20462;-66
2021/03/06 06:39:43;;;;;;;3.40;2.23;;;1.10;99.90;;;;;;5050017;28;20475;-67
2021/03/06 06:42:09;;;;;;;3.17;1.70;;;1.20;99.90;;;;;;5033929;28;20988;-67
2021/03/06 06:44:36;;;;;;;3.00;2.33;;;1.20;99.90;;;;;;5034329;28;20463;-66
2021/03/06 06:47:16;;;;;;;5.63;3.03;;;1.20;99.90;;;;;;5016985;28;20988;-66
2021/03/06 06:49:44;;;;;;;3.47;2.87;;;1.20;99.90;;;;;;5016605;28;20459;-66
2021/03/06 06:52:10;;;;;;;4.13;2.47;;;1.20;99.90;;;;;;5050815;28;20463;-66
2021/03/06 06:54:35;;;;;;;5.50;3.00;;;1.20;99.90;;;;;;5049674;28;21060;-66
2021/03/06 06:57:16;;;;;;;3.47;2.60;;;1.20;99.90;;;;;;5017119;28;20231;-66
2021/03/06 07:00:08;;;;;;;3.57;2.47;;;1.20;99.90;;;;;;5049640;28;20256;-66
2021/03/06 07:02:34;;;;;;;2.27;2.03;;;1.20;99.90;;;;;;5008947;28;20621;-66
2021/03/06 07:05:05;;;;;;;3.00;2.50;;;1.20;99.90;;;;;;5026181;28;20538;-68
2021/03/06 07:07:42;;;;;;;5.10;3.10;;;1.20;99.90;;;;;;5036752;28;20487;-68
2021/03/06 07:10:10;;;;;;;5.07;3.47;;;1.20;99.90;;;;;;5024281;28;20463;-66
2021/03/06 07:12:41;;;;;;;6.73;3.60;;;1.20;99.90;;;;;;5011478;28;20463;-66
2021/03/06 07:15:21;;;;;;;9.40;3.87;;;1.20;99.90;;;;;;5014265;28;20469;-66
2021/03/06 07:17:49;;;;;;;8.83;4.80;;;1.20;99.90;;;;;;5008440;28;20451;-66
2021/03/06 07:20:21;;;;;;;6.00;4.30;;;1.30;99.90;;;;;;4997312;28;20506;-66
2021/03/06 07:22:53;;;;;;;7.70;4.40;;;1.30;99.90;;;;;;5010984;28;20615;-68
2021/03/06 07:25:20;;;;;;;8.40;5.07;;;1.30;99.90;;;;;;5023285;28;20453;-69
2021/03/06 07:31:38;;;;;;;6.50;4.10;;;1.30;99.90;;;;;;5042287;28;20467;-68
2021/03/06 07:34:07;;;;;;;6.47;3.53;;;1.40;99.90;;;;;;5034198;28;20446;-69
2021/03/06 07:36:36;;;;;;;4.70;2.67;;;1.40;99.90;;;;;;4997551;28;20455;-69
2021/03/06 07:39:05;;;;;;;5.10;3.87;;;1.40;99.90;;;;;;5019044;28;20472;-69
2021/03/06 07:41:38;;;;;;;5.60;3.60;;;1.50;99.90;;;;;;5024930;28;20459;-69
2021/03/06 07:44:11;;;;;;;4.10;2.73;;;1.50;99.90;;;;;;5014128;28;20476;-69
2021/03/06 07:46:39;;;;;;;4.83;3.07;;;1.50;99.90;;;;;;5029995;28;20460;-67
2021/03/06 07:49:13;;;;;;;4.13;3.10;;;1.50;99.90;;;;;;5029099;28;20470;-68
2021/03/06 07:51:44;;;;;;;3.77;2.87;;;1.60;99.90;;;;;;4993300;28;20459;-68
2021/03/06 07:54:13;;;;;;;3.30;2.20;;;1.60;99.90;;;;;;5021679;28;20518;-69
2021/03/06 07:56:48;;;;;;;3.43;2.73;;;1.70;99.90;;;;;;5012502;28;20474;-68
2021/03/06 07:59:14;;;;;;;4.30;2.60;;;1.70;99.90;;;;;;5012770;28;20531;-69
2021/03/06 08:01:40;;;;;;;3.20;2.13;;;1.80;99.90;;;;;;4993621;28;20463;-68
2021/03/06 08:04:06;;;;;;;8.27;2.30;;;1.80;99.90;;;;;;5007283;28;20222;-68
2021/03/06 08:06:32;;;;;;;2.97;2.30;;;1.90;99.90;;;;;;4989982;28;20448;-69
2021/03/06 08:09:06;;;;;;;3.13;2.20;;;1.90;99.90;;;;;;5013937;28;20228;-70
2021/03/06 08:11:42;;;;;;;2.87;2.30;;;2.00;99.90;;;;;;5010493;28;20491;-68
2021/03/06 08:14:28;;;;;;;2.80;2.17;;;2.00;99.90;;;;;;5007521;28;20494;-70
2021/03/06 08:16:54;;;;;;;4.47;2.60;;;2.10;99.90;;;;;;4994100;28;20460;-68
2021/03/06 08:19:19;;;;;;;4.20;2.60;;;2.10;99.90;;;;;;5009598;28;20488;-70
2021/03/06 08:21:47;;;;;;;7.00;2.50;;;2.20;99.90;;;;;;5030973;28;20228;-69
2021/03/06 08:24:19;;;;;;;5.27;3.20;;;2.30;99.90;;;;;;5014817;28;20228;-66
2021/03/06 08:26:51;;;;;;;2.33;2.13;;;2.30;99.90;;;;;;5020095;28;20461;-67
2021/03/06 08:29:23;;;;;;;3.63;2.50;;;2.40;99.90;;;;;;5027718;28;20474;-66
2021/03/06 08:32:24;;;;;;;5.57;2.47;;;2.50;99.90;;;;;;5028526;28;20492;-67
2021/03/06 08:34:53;;;;;;;3.40;2.40;;;2.60;99.90;;;;;;4932889;29;20909;-67
2021/03/06 08:37:22;;;;;;;8.67;4.70;;;2.60;99.90;;;;;;5024718;28;20590;-67
2021/03/06 08:40:03;;;;;;;10.63;6.40;;;2.80;99.90;;;;;;5031099;28;20478;-67
2021/03/06 08:42:43;;;;;;;4.57;4.17;;;2.90;99.90;;;;;;5013734;28;20458;-67
2021/03/06 08:45:24;;;;;;;6.87;5.37;;;2.90;99.90;;;;;;5046746;28;20455;-69
2021/03/06 08:48:02;;;;;;;6.77;4.70;;;2.90;99.90;;;;;;5027776;28;20855;-68
2021/03/06 08:50:30;;;;;;;6.37;4.47;;;3.00;99.90;;;;;;5023300;28;20551;-69
2021/03/06 08:53:10;;;;;;;5.50;3.50;;;3.10;99.90;;;;;;4991996;28;20457;-68
2021/03/06 08:55:53;;;;;;;6.50;4.33;;;3.10;99.90;;;;;;5014202;28;20460;-69
2021/03/06 08:58:20;;;;;;;4.90;3.43;;;3.30;99.90;;;;;;5048260;28;20949;-70
2021/03/06 09:00:55;;;;;;;4.90;2.93;;;3.40;99.90;;;;;;5036472;28;20985;-68
2021/03/06 09:03:26;;;;;;;3.70;2.40;;;3.40;99.90;;;;;;5020025;28;20451;-67
2021/03/06 09:05:57;;;;;;;7.73;3.57;;;3.50;99.90;;;;;;4994729;28;20459;-72
2021/03/06 09:08:25;;;;;;;4.07;3.20;;;3.50;99.90;;;;;;5009042;28;20478;-71
2021/03/06 09:10:55;;;;;;;5.27;2.93;;;3.60;99.90;;;;;;5029646;28;20459;-68
2021/03/06 09:13:23;;;;;;;4.30;3.40;;;3.70;99.90;;;;;;5035968;28;20483;-68
2021/03/06 09:15:53;;;;;;;8.30;3.00;;;3.70;99.90;;;;;;5000833;28;20455;-70
2021/03/06 09:18:26;;;;;;;5.70;3.60;;;3.80;99.90;;;;;;5014554;28;20453;-67
2021/03/06 09:20:56;;;;;;;3.40;3.10;;;3.80;99.90;;;;;;5021567;28;20486;-69
2021/03/06 09:23:34;;;;;;;3.50;3.03;;;3.90;99.90;;;;;;4988577;28;20527;-68
2021/03/06 09:26:08;;;;;;;4.13;3.20;;;3.90;99.90;;;;;;5021799;28;20460;-68
2021/03/06 09:28:35;;;;;;;5.93;3.10;;;4.00;99.90;;;;;;5019541;28;20499;-68
2021/03/06 09:31:09;;;;;;;2.03;1.83;;;4.10;99.90;;;;;;5032073;28;20545;-68
2021/03/06 09:33:36;;;;;;;7.30;2.83;;;4.20;99.90;;;;;;4974988;28;20456;-69
2021/03/06 09:36:10;;;;;;;3.23;2.77;;;4.20;99.90;;;;;;5023608;28;20473;-67
2021/03/06 09:38:43;;;;;;;5.10;3.73;;;4.30;99.90;;;;;;5008614;28;20986;-68
2021/03/06 09:41:09;;;;;;;6.07;3.47;;;4.40;99.90;;;;;;5007808;28;20468;-70
2021/03/06 09:43:37;;;;;;;3.80;2.93;;;4.40;99.90;;;;;;5007921;28;20452;-68
2021/03/06 09:46:11;;;;;;;3.27;2.50;;;4.50;99.90;;;;;;5023253;28;20437;-68
2021/03/06 09:48:36;;;;;;;3.63;2.63;;;4.60;99.90;;;;;;5009272;28;20449;-67
2021/03/06 09:51:02;;;;;;;4.30;2.53;;;4.70;99.90;;;;;;4990861;28;20520;-71
2021/03/06 09:53:29;;;;;;;3.17;2.70;;;4.80;99.90;;;;;;5015808;28;20279;-67
2021/03/06 09:56:12;;;;;;;4.97;2.83;;;4.90;99.90;;;;;;4988085;28;20463;-67
2021/03/06 09:58:41;;;;;;;4.60;3.00;;;5.00;99.90;;;;;;4991479;28;20797;-68
2021/03/06 10:01:16;;;;;;;4.10;2.77;;;5.20;99.90;;;;;;5018931;28;20467;-67
2021/03/06 10:03:43;;;;;;;2.93;2.20;;;5.30;99.90;;;;;;4992113;28;20497;-68
2021/03/06 10:06:15;;;;;;;2.10;1.90;;;5.40;99.90;;;;;;5024708;28;20444;-70
2021/03/06 10:08:52;;;;;;;2.40;2.17;;;5.50;99.90;;;;;;5017851;28;20459;-67
2021/03/06 10:11:18;;;;;;;7.90;3.90;;;5.50;99.90;;;;;;5009891;28;20459;-68
2021/03/06 10:13:52;;;;;;;10.40;5.07;;;5.50;99.90;;;;;;5015877;28;20451;-69
2021/03/06 10:16:19;;;;;;;9.60;5.93;;;5.50;99.90;;;;;;5006684;28;20502;-71
2021/03/06 10:18:45;;;;;;;4.90;3.90;;;5.40;99.90;;;;;;5037070;28;20482;-69
2021/03/06 10:21:18;;;;;;;3.70;3.00;;;5.40;99.90;;;;;;5002964;28;20534;-69
2021/03/06 10:23:44;;;;;;;5.03;3.20;;;5.40;99.90;;;;;;4985624;28;20456;-68
2021/03/06 10:26:20;;;;;;;4.37;2.90;;;5.60;99.90;;;;;;5018976;28;20449;-71
2021/03/06 10:28:47;;;;;;;2.63;2.43;;;5.70;99.90;;;;;;5006976;28;20455;-68
2021/03/06 10:31:31;;;;;;;5.90;2.60;;;5.70;99.90;;;;;;5000890;28;20459;-68
2021/03/06 10:33:58;;;;;;;2.93;2.70;;;5.70;99.90;;;;;;5004042;28;20456;-69
2021/03/06 10:36:25;;;;;;;3.23;2.10;;;5.70;99.90;;;;;;5006447;28;20456;-68
2021/03/06 10:39:28;;;;;;;2.07;1.97;;;5.80;99.90;;;;;;4988349;28;20448;-71
2021/03/06 10:41:58;;;;;;;2.13;1.90;;;5.80;99.90;;;;;;4978865;28;20521;-68
2021/03/06 10:44:32;;;;;;;3.83;2.20;;;5.80;99.90;;;;;;5009493;28;20451;-69
2021/03/06 10:46:59;;;;;;;2.90;1.97;;;5.90;99.90;;;;;;5009008;28;20476;-68
2021/03/06 10:49:45;;;;;;;3.80;2.10;;;5.90;99.40;;;;;;5007990;28;20456;-69
2021/03/06 10:52:30;;;;;;;6.33;2.23;;;5.70;98.70;;;;;;5020988;28;20464;-69
2021/03/06 10:54:58;;;;;;;2.03;1.83;;;5.60;99.00;;;;;;5023999;28;20455;-71
2021/03/06 10:57:26;;;;;;;2.03;1.60;;;5.60;99.20;;;;;;5010932;28;20472;-68
2021/03/06 10:59:52;;;;;;;2.20;2.00;;;5.50;98.40;;;;;;4991363;28;20473;-68
2021/03/06 11:02:30;;;;;;;2.53;1.80;;;5.50;98.50;;;;;;4991484;28;20484;-72
2021/03/06 11:05:18;;;;;;;2.50;1.90;;;5.50;97.90;;;;;;5024402;28;20464;-68
2021/03/06 11:07:44;;;;;;;3.07;1.87;;;5.50;98.00;;;;;;5028830;28;21079;-67
2021/03/06 11:10:11;;;;;;;1.50;1.40;;;5.50;98.00;;;;;;4997966;28;20554;-68
2021/03/06 11:12:38;;;;;;;2.90;2.40;;;5.30;97.60;;;;;;5028623;28;20698;-67
2021/03/06 11:15:10;;;;;;;2.53;2.27;;;5.30;97.60;;;;;;5014534;28;20456;-67
2021/03/06 11:17:36;;;;;;;1.73;1.60;;;5.40;98.60;;;;;;5027179;28;20454;-69
2021/03/06 11:20:04;;;;;;;2.57;2.07;;;5.30;97.10;;;;;;5008498;28;20496;-68
2021/03/06 11:22:30;;;;;;;2.73;2.20;;;5.30;97.30;;;;;;5010799;28;20455;-70
2021/03/06 11:24:55;;;;;;;3.03;2.20;;;5.30;97.40;;;;;;4980022;28;22016;-68
2021/03/06 11:27:21;;;;;;;1.80;1.70;;;5.40;97.80;;;;;;5028494;28;20221;-69
2021/03/06 11:29:47;;;;;;;2.17;1.30;;;5.50;97.20;;;;;;4995531;28;20227;-68
2021/03/06 11:32:13;;;;;;;3.80;1.90;;;5.50;97.30;;;;;;5016626;28;20232;-68
2021/03/06 11:34:38;;;;;;;9.40;5.27;;;5.50;97.30;;;;;;5008092;28;20229;-67
2021/03/06 11:37:04;;;;;;;4.43;2.37;;;5.50;97.60;;;;;;4994212;28;20209;-68
2021/03/06 11:39:30;;;;;;;3.13;2.43;;;5.50;96.70;;;;;;4995295;28;20247;-68
2021/03/06 11:41:55;;;;;;;2.93;2.30;;;5.50;98.10;;;;;;5025582;28;20326;-68
2021/03/06 11:44:21;;;;;;;1.60;1.50;;;5.70;97.40;;;;;;5007815;28;20398;-67
2021/03/06 11:46:47;;;;;;;3.40;2.43;;;5.80;97.00;;;;;;5003849;28;20305;-69
2021/03/06 11:49:12;;;;;;;3.50;2.00;;;5.70;96.20;;;;;;5020263;28;20225;-68
2021/03/06 11:51:38;;;;;;;2.13;1.93;;;5.80;97.00;;;;;;5018670;28;20229;-69
2021/03/06 11:54:04;;;;;;;2.07;1.63;;;5.80;96.80;;;;;;5006178;28;20229;-67
2021/03/06 11:56:30;;;;;;;3.70;2.07;;;5.90;96.90;;;;;;5041568;28;20261;-69
2021/03/06 11:58:56;;;;;;;3.70;3.33;;;6.00;96.70;;;;;;5015682;28;20467;-70
2021/03/06 12:01:22;;;;;;;3.90;2.33;;;6.00;95.80;;;;;;5016968;28;20225;-69
2021/03/06 12:03:48;;;;;;;2.53;1.97;;;6.00;96.00;;;;;;5011347;28;20228;-69
2021/03/06 12:06:14;;;;;;;2.83;2.13;;;6.00;95.80;;;;;;5012916;28;20280;-69
2021/03/06 12:08:39;;;;;;;2.00;1.60;;;6.00;96.10;;;;;;5012244;28;20217;-69
2021/03/06 12:11:05;;;;;;;3.70;1.77;;;6.30;95.80;;;;;;5007670;28;20472;-68
2021/03/06 12:13:31;;;;;;;2.60;2.07;;;6.20;96.10;;;;;;4989996;28;20642;-67
2021/03/06 12:15:57;;;;;;;2.60;1.97;;;6.20;95.20;;;;;;4979573;28;20218;-68
2021/03/06 12:18:23;;;;;;;2.50;1.60;;;6.10;94.70;;;;;;5007019;28;20903;-69
2021/03/06 12:20:49;;;;;;;3.83;2.30;;;6.10;95.10;;;;;;5001822;28;20236;-69
2021/03/06 12:23:14;;;;;;;2.30;2.10;;;6.20;95.20;;;;;;5016654;28;20228;-69
2021/03/06 12:25:40;;;;;;;2.83;2.23;;;6.30;95.60;;;;;;5011459;28;20217;-69
2021/03/06 12:28:06;;;;;;;3.37;2.23;;;6.30;95.00;;;;;;4996833;28;20714;-69
2021/03/06 12:30:32;;;;;;;2.27;1.63;;;6.20;95.20;;;;;;5032550;28;20233;-67
2021/03/06 12:32:57;;;;;;;1.97;1.80;;;6.20;95.10;;;;;;5006669;28;20318;-68
2021/03/06 12:35:23;;;;;;;3.23;1.77;;;6.30;95.20;;;;;;5000444;28;20220;-69
2021/03/06 12:37:49;;;;;;;1.70;1.60;;;6.40;95.30;;;;;;5002957;28;20229;-68
2021/03/06 12:40:15;;;;;;;1.90;1.70;;;6.60;95.40;;;;;;5004473;28;20785;-69
2021/03/06 12:42:41;;;;;;;6.00;1.70;;;6.60;94.40;;;;;;5004637;28;20236;-68
2021/03/06 12:45:09;;;;;;;1.50;1.40;;;6.50;94.40;;;;;;5002449;28;20444;-67
2021/03/06 12:47:34;;;;;;;2.10;1.57;;;6.50;94.10;;;;;;5035572;28;20307;-69
2021/03/06 12:50:00;;;;;;;1.60;1.50;;;6.40;93.90;;;;;;5012625;28;21018;-68
2021/03/06 12:52:26;;;;;;;2.40;2.10;;;6.30;93.70;;;;;;5011401;28;20274;-68
2021/03/06 12:54:52;;;;;;;2.20;1.37;;;6.40;94.00;;;;;;5027902;28;20334;-68
2021/03/06 12:57:18;;;;;;;3.50;2.33;;;6.60;93.90;;;;;;4992698;28;20217;-68
2021/03/06 12:59:43;;;;;;;4.20;2.10;;;6.70;93.70;;;;;;4994477;28;20491;-68
2021/03/06 13:02:09;;;;;;;3.40;2.10;;;6.70;93.40;;;;;;5036009;28;20324;-67
2021/03/06 13:04:35;;;;;;;2.23;2.13;;;6.80;93.10;;;;;;5010258;28;20771;-69
2021/03/06 13:07:00;;;;;;;1.90;1.70;;;6.90;93.90;;;;;;4993497;28;20205;-69
2021/03/06 13:09:26;;;;;;;2.87;2.07;;;7.00;93.50;;;;;;5011035;28;20622;-68
2021/03/06 13:11:52;;;;;;;3.30;2.33;;;7.00;94.30;;;;;;4997122;28;20240;-69